CDT,Max TemperatureF,Mean TemperatureF,Min TemperatureF,Max Dew PointF,MeanDew PointF,Min DewpointF,Max Humidity, Mean Humidity, Min Humidity, Max Sea Level PressureIn, Mean Sea Level PressureIn, Min Sea Level PressureIn, Max VisibilityMiles, Mean VisibilityMiles, Min VisibilityMiles, Max Wind SpeedMPH, Mean Wind SpeedMPH, Max Gust SpeedMPH,PrecipitationIn, CloudCover, Events, WindDirDegrees
2012-7-1,89,78,66,73,68,64,100,75,46,29.94,29.89,29.85,10,9,4,14,2,17,0.00,0,Thunderstorm,145
2012-7-2,93,81,69,73,72,68,100,72,52,29.88,29.84,29.78,10,9,4,13,4,18,0.00,0,,188
2012-7-3,91,78,66,79,71,64,94,72,55,29.92,29.78,29.73,10,10,4,18,7,29,0.02,1,Rain-Thunderstorm,196
2012-7-4,93,83,73,75,74,73,100,73,52,29.82,29.78,29.75,10,9,5,13,4,18,0.00,0,Thunderstorm,190
2012-7-5,91,82,73,75,72,66,94,72,52,29.96,29.90,29.81,10,10,4,12,2,,0.00,0,,36
2012-7-6,96,82,69,75,71,63,94,71,44,30.02,29.92,29.85,10,9,2,16,3,26,0.00,0,Thunderstorm,175
2012-7-7,82,72,62,66,61,55,100,71,45,30.14,30.10,30.00,10,10,7,14,8,18,0.01,2,Rain,22
2012-7-8,84,74,64,64,61,57,94,64,40,30.18,30.14,30.07,10,10,10,12,2,,0.00,0,,299
2012-7-9,82,71,60,64,56,52,94,58,35,30.15,30.13,30.11,10,10,7,13,4,21,0.00,1,,9
2012-7-10,82,68,55,61,55,50,100,64,32,30.18,30.15,30.11,10,9,2,6,1,,0.00,1,,85
2012-7-11,84,70,55,63,58,54,100,65,37,30.16,30.12,30.05,10,9,2,10,2,,0.00,0,,209
2012-7-12,86,72,57,66,61,55,100,68,42,30.07,30.02,29.97,10,9,2,13,3,22,0.00,1,Rain,171
2012-7-13,86,76,64,70,66,63,94,78,51,30.01,29.97,29.92,10,10,5,15,5,24,0.18,3,Rain-Thunderstorm,146
2012-7-14,87,74,62,68,65,63,100,71,46,30.03,30.00,29.97,10,9,4,12,3,18,0.01,1,Rain-Thunderstorm,317
2012-7-15,87,76,64,72,67,63,100,74,46,30.07,30.02,29.95,10,8,3,8,2,,0.00,0,,147
2012-7-16,93,80,68,70,66,63,94,61,36,29.95,29.82,29.75,10,10,7,20,5,26,0.00,0,,205
2012-7-17,91,82,71,75,71,66,88,69,55,29.89,29.81,29.77,10,10,7,12,4,18,0.00,0,,39
2012-7-18,84,76,69,70,68,66,100,86,58,29.94,29.89,29.84,10,9,0,20,6,24,0.38,2,Rain-Thunderstorm,68
2012-7-19,80,73,66,68,66,64,100,83,61,30.08,30.02,29.93,10,8,4,7,4,,0.01,5,,49
2012-7-20,82,72,62,70,64,61,100,76,54,30.15,30.08,30.03,10,9,5,12,3,18,0.00,0,Thunderstorm,169
2012-7-21,84,75,66,72,67,64,100,82,58,30.10,30.02,29.97,10,10,4,14,3,22,0.08,1,Rain-Thunderstorm,137
2012-7-22,86,78,69,73,70,66,100,78,62,30.01,29.94,29.88,10,10,7,9,2,18,0.01,1,Rain-Thunderstorm,194
2012-7-23,91,81,71,73,69,63,100,72,43,30.00,29.94,29.90,10,9,4,10,2,,0.17,0,Rain-Thunderstorm,305
2012-7-24,78,72,66,72,68,64,100,91,78,30.02,29.92,29.80,10,9,2,15,6,21,1.46,4,Rain-Thunderstorm,100
2012-7-25,89,80,71,73,71,68,94,78,58,29.79,29.66,29.59,10,10,10,15,8,25,0.00,1,,231
2012-7-26,80,71,62,72,63,57,100,75,45,29.84,29.75,29.67,10,10,4,16,6,22,0.31,2,Rain,272
2012-7-27,75,67,59,63,60,57,100,81,57,30.12,29.99,29.84,10,10,5,13,5,18,0.00,3,,346
2012-7-28,80,68,55,68,62,55,100,80,54,30.16,30.10,30.02,10,8,3,10,2,,0.00,1,Thunderstorm,157
2012-7-29,77,70,64,68,65,63,100,89,69,30.06,30.01,29.96,10,9,2,8,2,,0.31,5,Rain-Thunderstorm,150
2012-7-30,86,75,64,72,66,61,100,77,48,29.97,29.91,29.88,10,10,5,14,5,18,0.00,0,,264
2012-7-31,82,71,60,70,64,61,100,76,51,30.03,29.99,29.96,10,10,4,5,1,,0.00,1,,286